Terminal Aerodrome Forecast
Issued by NWS

Home | Current Version | Previous Version | Text Only | Print | Product List | Glossary On
Versions: 1 2 3 4 5 6 7 8 9 10 11 12 13 14
000
FTXN70 PGUM 032210 AAC
TAFKMJ
TAF AMD
PKMJ 032210Z 0322/0418 07014KT P6SM VCTS SCT014CB BKN040 OVC120
      TEMPO 0322/0401 5SM SHRA BKN014 OVC040
     FM040300 07013KT P6SM VCSH SCT015 SCT050 BKN120=

USA.gov is the U.S. government's official web portal to all federal, state and local government web resources and services.